Airfield :
LOGIN :

Register | Disclaimer

   EN    FR    IT 

 










Legend :    VFR   Marginal VFR   IFR   Intensive IFR   Very Intensive IFR
Visi :
Ceiling :
>= 8 km
>= 3000ft
5 to 8 km
1000 to 3000 ft
1500m to 5 km
500 to 1000 ft
800 to 1500m
200 to 500 ft
< 800m
< 200 ft
Symbols :   Thunderstorms  Fog  Heavy snow  Heavy precipitations  Wind > 20 kt
SIGMETs :     Misc.  Thunderstorms  Icing  Turbulence  Mountain Waves  Volcanic Ashes






- Airport Elevation : 308 ft


ESIA - Karlsborg Air Base

CURRENT METAR :
  • 071420Z AUTO 29014KT 260V320 9999 NCD 14/M00 Q1025

EXPIRED METARs :
  • 071350Z 29010KT 270V330 CAVOK 14/00 Q1025
  • 071320Z 27016KT 260V320 CAVOK 13/01 Q1025
  • 071250Z 30015KT 260V330 CAVOK 13/00 Q1024
  • 071220Z 29016KT CAVOK 14/01 Q1023
  • 071150Z 27019KT CAVOK 13/02 Q1022
  • 071120Z 28018KT CAVOK 13/02 Q1022

Expired Forecast.



MET'MAP, your aeronautical weather chart ! - Copyright ORBIFLY December 2007 - Disclaimer

ORBIFLY MET'MAP TEAM :

Programming & Development : Alexandra Zaïnal
Concept & original design : Baudouin d'Aumeries
Assistance for programming : Marc-Olivier Méhu
Technical & hardware support : Manuel Goepfert

Contact : metmap@orbifly.com




SOURCES & CREDITS :

   NOAA